createdAt,value
2018-12-19T00:02:34.043Z,0.50
2018-12-19T00:07:36.495Z,0.63
2018-12-19T00:12:38.975Z,0.67
2018-12-19T00:17:41.420Z,0.50
2018-12-19T00:22:43.868Z,0.53
2018-12-19T00:27:46.352Z,0.77
2018-12-19T00:32:48.804Z,0.60
2018-12-19T00:37:51.248Z,0.30
2018-12-19T00:42:53.706Z,0.57
2018-12-19T00:47:56.187Z,0.73
2018-12-19T00:52:58.652Z,0.60
2018-12-19T00:58:01.120Z,0.87
2018-12-19T01:03:03.867Z,1.00
2018-12-19T01:08:06.333Z,0.80
2018-12-19T01:13:08.788Z,1.20
2018-12-19T01:18:11.422Z,1.27
2018-12-19T01:23:14.075Z,1.30
2018-12-19T01:28:16.555Z,1.37
2018-12-19T01:33:19.019Z,1.60
2018-12-19T01:38:21.756Z,1.30
2018-12-19T01:43:24.238Z,1.60
2018-12-19T01:48:26.687Z,1.43
2018-12-19T01:53:30.134Z,1.00
2018-12-19T01:58:32.579Z,1.20
2018-12-19T02:03:35.037Z,1.93
2018-12-19T02:08:37.511Z,1.83
2018-12-19T02:13:39.979Z,1.60
2018-12-19T02:18:42.442Z,1.97
2018-12-19T02:23:45.094Z,1.50
2018-12-19T02:28:47.531Z,1.90
2018-12-19T02:33:50.143Z,2.20
2018-12-19T02:38:52.610Z,2.10
2018-12-19T02:43:55.064Z,1.80
2018-12-19T02:48:57.556Z,1.90
2018-12-19T02:54:00.008Z,1.90
2018-12-19T02:59:02.448Z,2.20
2018-12-19T03:04:04.900Z,1.70
2018-12-19T03:09:07.843Z,1.93
2018-12-19T03:14:10.310Z,1.83
2018-12-19T03:19:12.776Z,1.70
2018-12-19T03:24:15.256Z,2.00
2018-12-19T03:29:17.715Z,2.03
2018-12-19T03:34:20.166Z,1.97
2018-12-19T03:39:22.714Z,1.53
2018-12-19T03:44:25.269Z,1.77
2018-12-19T03:49:27.881Z,1.70
2018-12-19T03:54:30.384Z,1.50
2018-12-19T03:59:32.867Z,1.70
2018-12-19T04:04:35.329Z,1.87
2018-12-19T04:09:37.781Z,1.93
2018-12-19T04:14:40.232Z,2.20
2018-12-19T04:19:42.692Z,2.00
2018-12-19T04:24:45.153Z,2.83
2018-12-19T04:29:47.756Z,2.70
2018-12-19T04:34:50.216Z,2.67
2018-12-19T04:39:54.272Z,2.97
2018-12-19T04:44:56.815Z,2.43
2018-12-19T04:49:59.374Z,2.80
2018-12-19T04:55:01.910Z,2.77
2018-12-19T05:00:07.215Z,2.77
2018-12-19T05:05:09.756Z,2.23
2018-12-19T05:10:12.584Z,3.13
2018-12-19T05:15:15.265Z,2.67
2018-12-19T05:20:17.851Z,2.50
2018-12-19T05:25:20.322Z,2.00
2018-12-19T05:30:22.793Z,2.37
2018-12-19T05:35:25.251Z,2.10
2018-12-19T05:40:29.772Z,2.43
2018-12-19T05:45:32.788Z,2.00
2018-12-19T05:50:35.272Z,2.13
2018-12-19T05:55:37.736Z,2.73
2018-12-19T06:00:40.205Z,2.17
2018-12-19T06:05:42.680Z,2.73
2018-12-19T06:10:45.146Z,2.47
2018-12-19T06:15:47.632Z,2.60
2018-12-19T06:20:50.105Z,3.30
2018-12-19T06:25:52.569Z,2.77
2018-12-19T06:30:59.809Z,3.03
2018-12-19T06:36:03.156Z,3.10
2018-12-19T06:41:05.638Z,2.57
2018-12-19T06:46:08.392Z,2.97
2018-12-19T06:51:10.830Z,3.10
2018-12-19T06:56:13.324Z,2.70
2018-12-19T07:01:15.774Z,2.80
2018-12-19T07:06:18.248Z,3.07
2018-12-19T07:11:21.344Z,3.30
2018-12-19T07:16:23.812Z,3.07
2018-12-19T07:21:26.340Z,2.53
2018-12-19T07:26:28.788Z,2.73
2018-12-19T07:31:31.290Z,2.73
2018-12-19T07:36:33.779Z,3.20
2018-12-19T07:41:36.236Z,4.00
2018-12-19T07:46:38.756Z,4.27
2018-12-19T07:51:41.215Z,3.73
2018-12-19T07:56:43.718Z,3.80
2018-12-19T08:01:46.216Z,4.10
2018-12-19T08:06:48.766Z,4.13
2018-12-19T08:11:51.226Z,3.90
2018-12-19T08:16:53.680Z,3.90
2018-12-19T08:21:56.175Z,4.20
2018-12-19T08:26:58.925Z,3.23
2018-12-19T08:32:01.410Z,3.90
2018-12-19T08:37:03.956Z,4.20
2018-12-19T08:42:06.420Z,3.70
2018-12-19T08:47:08.889Z,3.40
2018-12-19T08:52:11.347Z,3.70
2018-12-19T08:57:13.850Z,3.53
2018-12-19T09:02:16.320Z,6.30
2018-12-19T09:07:18.823Z,3.87
2018-12-19T09:12:23.230Z,3.87
2018-12-19T09:17:25.935Z,4.17
2018-12-19T09:22:28.578Z,3.97
2018-12-19T09:27:31.064Z,3.93
2018-12-19T09:32:33.515Z,5.43
2018-12-19T09:37:35.980Z,3.43
2018-12-19T09:42:38.528Z,3.53
2018-12-19T09:47:40.991Z,2.93
2018-12-19T09:52:43.457Z,2.90
2018-12-19T09:57:45.904Z,2.60
2018-12-19T10:02:49.405Z,2.77
2018-12-19T10:07:52.057Z,2.50
2018-12-19T10:12:54.543Z,3.97
2018-12-19T10:17:57.005Z,3.00
2018-12-19T10:22:59.616Z,2.27
2018-12-19T10:28:02.128Z,6.67
2018-12-19T10:33:04.578Z,2.90
2018-12-19T10:38:07.042Z,3.47
2018-12-19T10:43:09.496Z,2.50
2018-12-19T10:48:12.000Z,3.70
2018-12-19T10:53:14.462Z,4.67
2018-12-19T10:58:19.288Z,6.37
2018-12-19T11:03:25.107Z,6.23
2018-12-19T11:08:27.553Z,2.57
2018-12-19T11:13:30.008Z,2.40
2018-12-19T11:18:32.472Z,2.30
2018-12-19T11:23:35.036Z,4.60
2018-12-19T11:28:37.492Z,2.80
2018-12-19T11:33:39.984Z,3.23
2018-12-19T11:38:42.450Z,1.83
2018-12-19T11:43:44.919Z,2.80
2018-12-19T11:48:47.381Z,1.23
2018-12-19T11:53:49.846Z,1.70
2018-12-19T11:58:52.312Z,1.30
2018-12-19T12:03:54.835Z,0.60
2018-12-19T12:08:57.305Z,0.70
2018-12-19T12:13:59.781Z,0.60
2018-12-19T12:19:02.256Z,0.93
2018-12-19T12:24:04.733Z,0.60
2018-12-19T12:29:07.197Z,0.80
2018-12-19T12:34:09.763Z,0.97
2018-12-19T12:39:12.230Z,0.90
2018-12-19T12:44:14.813Z,1.03
2018-12-19T12:49:17.277Z,0.80
2018-12-19T12:54:19.755Z,1.07
2018-12-19T12:59:22.229Z,1.00
2018-12-19T13:04:26.638Z,1.20
2018-12-19T13:09:29.131Z,1.27
2018-12-19T13:14:31.625Z,1.00
2018-12-19T13:19:34.113Z,1.40
2018-12-19T13:24:37.605Z,1.10
2018-12-19T13:29:40.213Z,1.20
2018-12-19T13:34:42.722Z,1.40
2018-12-19T13:39:45.215Z,1.57
2018-12-19T13:44:47.824Z,0.97
2018-12-19T13:49:50.388Z,1.10
2018-12-19T13:54:52.967Z,1.03
2018-12-19T13:59:56.191Z,0.90
2018-12-19T14:04:58.704Z,1.10
2018-12-19T14:10:01.246Z,1.10
2018-12-19T14:15:04.590Z,1.00
2018-12-19T14:20:08.005Z,2.87
2018-12-19T14:25:10.571Z,1.97
2018-12-19T14:30:13.056Z,4.77
2018-12-19T14:35:28.838Z,2.13
2018-12-19T14:40:44.284Z,2.03
2018-12-19T14:51:25.188Z,1.20
2018-12-19T15:02:11.532Z,0.83
2018-12-19T15:07:14.020Z,1.20
2018-12-19T15:12:16.450Z,2.33
2018-12-19T15:22:38.283Z,1.67
2018-12-19T15:27:45.030Z,2.03
2018-12-19T15:38:45.892Z,1.93
2018-12-19T16:00:50.250Z,2.60
2018-12-19T16:06:05.129Z,2.30
2018-12-19T16:11:07.613Z,3.20
2018-12-19T16:16:10.108Z,2.63
2018-12-19T16:21:12.561Z,2.20
2018-12-19T16:26:15.012Z,2.30
2018-12-19T16:31:17.693Z,1.83
2018-12-19T16:36:20.335Z,2.07
2018-12-19T16:41:23.030Z,2.17
2018-12-19T16:46:25.497Z,2.40
2018-12-19T16:51:28.057Z,4.50
2018-12-19T16:56:31.516Z,2.50
2018-12-19T17:01:33.964Z,2.60
2018-12-19T17:06:36.412Z,1.37
2018-12-19T17:11:38.878Z,1.70
2018-12-19T17:16:41.957Z,1.67
2018-12-19T17:21:44.492Z,1.40
2018-12-19T17:26:46.945Z,1.97
2018-12-19T17:31:49.424Z,1.30
2018-12-19T17:36:51.864Z,1.70
2018-12-19T17:41:54.316Z,1.93
2018-12-19T17:46:56.820Z,1.50
2018-12-19T17:51:59.308Z,1.30
2018-12-19T17:57:01.758Z,1.20
2018-12-19T18:02:04.456Z,1.40
2018-12-19T18:07:28.748Z,1.20
2018-12-19T18:17:55.293Z,1.20
2018-12-19T18:22:57.750Z,1.30
2018-12-19T18:28:00.320Z,1.20
2018-12-19T18:33:02.900Z,2.10
2018-12-19T18:38:15.374Z,1.20
2018-12-19T18:43:19.586Z,2.10
2018-12-19T18:48:22.160Z,1.53
2018-12-19T18:53:24.666Z,1.77
2018-12-19T19:20:35.512Z,1.80
2018-12-19T19:25:48.073Z,2.27
2018-12-19T19:31:16.433Z,2.73
2018-12-19T19:41:33.383Z,1.97
2018-12-19T19:46:41.649Z,2.00
2018-12-19T19:52:10.642Z,2.27
2018-12-19T19:57:13.076Z,2.13
2018-12-19T20:02:15.556Z,3.37
2018-12-19T20:07:18.014Z,2.60
2018-12-19T20:12:20.480Z,2.70
2018-12-19T20:17:25.965Z,1.90
2018-12-19T20:22:28.409Z,2.77
2018-12-19T20:27:30.883Z,2.20
2018-12-19T20:32:33.358Z,2.70
2018-12-19T20:37:35.841Z,2.90
2018-12-19T20:42:38.340Z,2.70
2018-12-19T20:47:40.800Z,5.83
2018-12-19T20:52:43.251Z,4.00
2018-12-19T20:57:45.712Z,4.33
2018-12-19T21:02:48.167Z,3.73
2018-12-19T21:07:50.800Z,3.50
2018-12-19T21:12:53.287Z,3.03
2018-12-19T21:18:01.379Z,3.40
2018-12-19T21:23:03.916Z,3.20
2018-12-19T21:28:06.532Z,4.20
2018-12-19T21:33:13.918Z,3.50
2018-12-19T21:38:13.547Z,3.93
2018-12-19T21:43:16.076Z,3.50
2018-12-19T21:48:18.627Z,3.87
2018-12-19T21:53:21.129Z,3.57
2018-12-19T21:58:23.668Z,3.20
2018-12-19T22:03:26.164Z,3.83
2018-12-19T22:08:28.674Z,4.30
2018-12-19T22:13:31.165Z,3.90
2018-12-19T22:18:41.527Z,3.60
2018-12-19T22:23:44.071Z,4.30
2018-12-19T22:28:46.573Z,3.90
2018-12-19T22:33:49.118Z,4.00
2018-12-19T22:38:51.653Z,3.93
2018-12-19T22:43:54.163Z,3.50
2018-12-19T22:48:56.757Z,3.40
2018-12-19T22:53:59.229Z,3.73
2018-12-19T22:59:01.690Z,2.73
2018-12-19T23:04:06.264Z,2.80
2018-12-19T23:09:08.790Z,3.47
2018-12-19T23:14:15.473Z,3.10
2018-12-19T23:19:17.521Z,3.33
2018-12-19T23:24:19.958Z,3.27
2018-12-19T23:29:22.719Z,3.27
2018-12-19T23:34:25.352Z,3.07
2018-12-19T23:39:27.814Z,3.47
2018-12-19T23:44:32.247Z,3.40
2018-12-19T23:49:34.768Z,4.17
2018-12-19T23:54:37.383Z,3.70
2018-12-19T23:59:40.009Z,3.57
